sensor_id;sensor_type;location;lat;lon;timestamp;P1;durP1;ratioP1;P2;durP2;ratioP2
10132;SDS011;5106;50.926;7.080;2022-07-26T00:01:30;1.30;;;1.00;;
10132;SDS011;5106;50.926;7.080;2022-07-26T00:03:55;3.92;;;1.13;;
10132;SDS011;5106;50.926;7.080;2022-07-26T00:06:21;2.83;;;1.40;;
10132;SDS011;5106;50.926;7.080;2022-07-26T00:08:47;5.47;;;1.30;;
10132;SDS011;5106;50.926;7.080;2022-07-26T00:11:14;2.97;;;1.13;;
10132;SDS011;5106;50.926;7.080;2022-07-26T00:13:40;2.67;;;1.30;;
10132;SDS011;5106;50.926;7.080;2022-07-26T00:16:05;2.63;;;1.40;;
10132;SDS011;5106;50.926;7.080;2022-07-26T00:18:31;4.72;;;1.50;;
10132;SDS011;5106;50.926;7.080;2022-07-26T00:20:57;2.05;;;1.20;;
10132;SDS011;5106;50.926;7.080;2022-07-26T00:23:23;3.03;;;1.40;;
10132;SDS011;5106;50.926;7.080;2022-07-26T00:25:49;2.40;;;1.25;;
10132;SDS011;5106;50.926;7.080;2022-07-26T00:28:14;1.73;;;0.90;;
10132;SDS011;5106;50.926;7.080;2022-07-26T00:30:40;1.77;;;1.15;;
10132;SDS011;5106;50.926;7.080;2022-07-26T00:33:06;4.18;;;1.10;;
10132;SDS011;5106;50.926;7.080;2022-07-26T00:35:32;2.45;;;1.20;;
10132;SDS011;5106;50.926;7.080;2022-07-26T00:37:58;4.82;;;1.20;;
10132;SDS011;5106;50.926;7.080;2022-07-26T00:40:24;2.17;;;1.05;;
10132;SDS011;5106;50.926;7.080;2022-07-26T00:42:49;5.22;;;1.50;;
10132;SDS011;5106;50.926;7.080;2022-07-26T00:45:16;2.22;;;1.20;;
10132;SDS011;5106;50.926;7.080;2022-07-26T00:47:42;4.05;;;1.30;;
10132;SDS011;5106;50.926;7.080;2022-07-26T00:50:09;2.67;;;1.45;;
10132;SDS011;5106;50.926;7.080;2022-07-26T00:52:36;3.67;;;1.40;;
10132;SDS011;5106;50.926;7.080;2022-07-26T00:55:03;3.42;;;1.17;;
10132;SDS011;5106;50.926;7.080;2022-07-26T00:57:30;5.15;;;1.13;;
10132;SDS011;5106;50.926;7.080;2022-07-26T00:59:56;3.47;;;1.25;;
10132;SDS011;5106;50.926;7.080;2022-07-26T01:02:25;3.83;;;1.02;;
10132;SDS011;5106;50.926;7.080;2022-07-26T01:04:51;1.70;;;1.15;;
10132;SDS011;5106;50.926;7.080;2022-07-26T01:07:16;3.38;;;1.10;;
10132;SDS011;5106;50.926;7.080;2022-07-26T01:09:43;3.28;;;1.33;;
10132;SDS011;5106;50.926;7.080;2022-07-26T01:12:09;4.93;;;1.40;;
10132;SDS011;5106;50.926;7.080;2022-07-26T01:14:35;2.45;;;1.30;;
10132;SDS011;5106;50.926;7.080;2022-07-26T01:17:01;3.00;;;1.20;;
10132;SDS011;5106;50.926;7.080;2022-07-26T01:19:26;4.82;;;1.50;;
10132;SDS011;5106;50.926;7.080;2022-07-26T01:21:52;4.13;;;1.38;;
10132;SDS011;5106;50.926;7.080;2022-07-26T01:24:18;5.18;;;1.40;;
10132;SDS011;5106;50.926;7.080;2022-07-26T01:26:44;4.22;;;1.45;;
10132;SDS011;5106;50.926;7.080;2022-07-26T01:29:10;3.88;;;1.20;;
10132;SDS011;5106;50.926;7.080;2022-07-26T01:31:35;5.93;;;1.42;;
10132;SDS011;5106;50.926;7.080;2022-07-26T01:34:01;4.50;;;1.33;;
10132;SDS011;5106;50.926;7.080;2022-07-26T01:36:27;4.65;;;1.40;;
10132;SDS011;5106;50.926;7.080;2022-07-26T01:38:53;1.73;;;1.15;;
10132;SDS011;5106;50.926;7.080;2022-07-26T01:41:18;3.55;;;1.50;;
10132;SDS011;5106;50.926;7.080;2022-07-26T01:43:44;3.33;;;1.50;;
10132;SDS011;5106;50.926;7.080;2022-07-26T01:46:10;3.85;;;1.52;;
10132;SDS011;5106;50.926;7.080;2022-07-26T01:48:37;2.50;;;1.40;;
10132;SDS011;5106;50.926;7.080;2022-07-26T01:51:03;4.75;;;1.40;;
10132;SDS011;5106;50.926;7.080;2022-07-26T01:53:29;2.90;;;1.40;;
10132;SDS011;5106;50.926;7.080;2022-07-26T01:55:55;4.32;;;1.42;;
10132;SDS011;5106;50.926;7.080;2022-07-26T01:58:21;3.38;;;1.50;;
10132;SDS011;5106;50.926;7.080;2022-07-26T02:00:47;2.58;;;1.50;;
10132;SDS011;5106;50.926;7.080;2022-07-26T02:03:12;3.40;;;1.38;;
10132;SDS011;5106;50.926;7.080;2022-07-26T02:05:39;4.32;;;1.60;;
10132;SDS011;5106;50.926;7.080;2022-07-26T02:08:05;3.35;;;1.30;;
10132;SDS011;5106;50.926;7.080;2022-07-26T02:10:31;4.88;;;1.65;;
10132;SDS011;5106;50.926;7.080;2022-07-26T02:13:15;4.55;;;1.65;;
10132;SDS011;5106;50.926;7.080;2022-07-26T02:15:41;4.68;;;1.70;;
10132;SDS011;5106;50.926;7.080;2022-07-26T02:18:07;1.88;;;1.27;;
10132;SDS011;5106;50.926;7.080;2022-07-26T02:20:33;4.60;;;1.48;;
10132;SDS011;5106;50.926;7.080;2022-07-26T02:22:59;3.58;;;1.50;;
10132;SDS011;5106;50.926;7.080;2022-07-26T02:25:25;7.00;;;2.00;;
10132;SDS011;5106;50.926;7.080;2022-07-26T02:27:51;4.88;;;1.73;;
10132;SDS011;5106;50.926;7.080;2022-07-26T02:30:16;3.72;;;1.42;;
10132;SDS011;5106;50.926;7.080;2022-07-26T02:32:42;4.80;;;1.70;;
10132;SDS011;5106;50.926;7.080;2022-07-26T02:35:08;4.75;;;1.60;;
10132;SDS011;5106;50.926;7.080;2022-07-26T02:37:34;3.78;;;1.70;;
10132;SDS011;5106;50.926;7.080;2022-07-26T02:40:00;3.45;;;1.73;;
10132;SDS011;5106;50.926;7.080;2022-07-26T02:42:26;4.10;;;1.70;;
10132;SDS011;5106;50.926;7.080;2022-07-26T02:44:52;4.50;;;1.77;;
10132;SDS011;5106;50.926;7.080;2022-07-26T02:47:18;3.50;;;1.50;;
10132;SDS011;5106;50.926;7.080;2022-07-26T02:49:43;2.83;;;1.52;;
10132;SDS011;5106;50.926;7.080;2022-07-26T02:52:09;3.92;;;1.52;;
10132;SDS011;5106;50.926;7.080;2022-07-26T02:54:35;5.30;;;1.85;;
10132;SDS011;5106;50.926;7.080;2022-07-26T02:57:00;4.50;;;1.50;;
10132;SDS011;5106;50.926;7.080;2022-07-26T02:59:26;5.82;;;1.60;;
10132;SDS011;5106;50.926;7.080;2022-07-26T03:01:52;5.18;;;1.70;;
10132;SDS011;5106;50.926;7.080;2022-07-26T03:04:17;2.17;;;1.38;;
10132;SDS011;5106;50.926;7.080;2022-07-26T03:06:43;4.70;;;1.55;;
10132;SDS011;5106;50.926;7.080;2022-07-26T03:09:09;3.92;;;1.67;;
10132;SDS011;5106;50.926;7.080;2022-07-26T03:11:34;3.42;;;1.80;;
10132;SDS011;5106;50.926;7.080;2022-07-26T03:14:00;6.35;;;1.83;;
10132;SDS011;5106;50.926;7.080;2022-07-26T03:16:25;3.28;;;1.80;;
10132;SDS011;5106;50.926;7.080;2022-07-26T03:18:51;4.88;;;1.85;;
10132;SDS011;5106;50.926;7.080;2022-07-26T03:21:17;4.53;;;1.80;;
10132;SDS011;5106;50.926;7.080;2022-07-26T03:23:42;7.80;;;1.83;;
10132;SDS011;5106;50.926;7.080;2022-07-26T03:26:08;3.25;;;1.60;;
10132;SDS011;5106;50.926;7.080;2022-07-26T03:28:34;4.43;;;1.50;;
10132;SDS011;5106;50.926;7.080;2022-07-26T03:30:59;3.13;;;1.75;;
10132;SDS011;5106;50.926;7.080;2022-07-26T03:33:26;4.15;;;1.80;;
10132;SDS011;5106;50.926;7.080;2022-07-26T03:35:52;6.57;;;2.17;;
10132;SDS011;5106;50.926;7.080;2022-07-26T03:38:17;3.47;;;1.48;;
10132;SDS011;5106;50.926;7.080;2022-07-26T03:40:43;6.47;;;1.60;;
10132;SDS011;5106;50.926;7.080;2022-07-26T03:43:09;5.20;;;1.70;;
10132;SDS011;5106;50.926;7.080;2022-07-26T03:45:34;3.78;;;1.85;;
10132;SDS011;5106;50.926;7.080;2022-07-26T03:48:00;3.70;;;1.70;;
10132;SDS011;5106;50.926;7.080;2022-07-26T03:50:26;3.65;;;1.70;;
10132;SDS011;5106;50.926;7.080;2022-07-26T03:52:51;7.10;;;2.30;;
10132;SDS011;5106;50.926;7.080;2022-07-26T03:55:17;4.35;;;1.73;;
10132;SDS011;5106;50.926;7.080;2022-07-26T03:58:01;7.40;;;2.20;;
10132;SDS011;5106;50.926;7.080;2022-07-26T04:00:27;5.30;;;1.98;;
10132;SDS011;5106;50.926;7.080;2022-07-26T04:02:52;4.80;;;1.90;;
10132;SDS011;5106;50.926;7.080;2022-07-26T04:05:18;6.57;;;2.20;;
10132;SDS011;5106;50.926;7.080;2022-07-26T04:07:45;5.53;;;1.88;;
10132;SDS011;5106;50.926;7.080;2022-07-26T04:10:11;8.48;;;2.25;;
10132;SDS011;5106;50.926;7.080;2022-07-26T04:12:37;4.65;;;2.08;;
10132;SDS011;5106;50.926;7.080;2022-07-26T04:15:03;8.63;;;2.30;;
10132;SDS011;5106;50.926;7.080;2022-07-26T04:17:39;10.45;;;2.40;;
10132;SDS011;5106;50.926;7.080;2022-07-26T04:20:06;6.65;;;2.42;;
10132;SDS011;5106;50.926;7.080;2022-07-26T04:22:36;8.10;;;2.55;;
10132;SDS011;5106;50.926;7.080;2022-07-26T04:25:03;4.25;;;2.22;;
10132;SDS011;5106;50.926;7.080;2022-07-26T04:27:30;7.75;;;2.50;;
10132;SDS011;5106;50.926;7.080;2022-07-26T04:29:57;6.82;;;2.38;;
10132;SDS011;5106;50.926;7.080;2022-07-26T04:32:23;9.80;;;2.75;;
10132;SDS011;5106;50.926;7.080;2022-07-26T04:34:49;4.32;;;2.20;;
10132;SDS011;5106;50.926;7.080;2022-07-26T04:37:15;6.13;;;2.53;;
10132;SDS011;5106;50.926;7.080;2022-07-26T04:39:40;8.00;;;2.47;;
10132;SDS011;5106;50.926;7.080;2022-07-26T04:42:06;3.33;;;1.92;;
10132;SDS011;5106;50.926;7.080;2022-07-26T04:44:32;5.70;;;2.53;;
10132;SDS011;5106;50.926;7.080;2022-07-26T04:46:57;8.60;;;2.25;;
10132;SDS011;5106;50.926;7.080;2022-07-26T04:49:23;6.35;;;2.42;;
10132;SDS011;5106;50.926;7.080;2022-07-26T04:51:48;4.68;;;2.20;;
10132;SDS011;5106;50.926;7.080;2022-07-26T04:54:14;6.88;;;2.60;;
10132;SDS011;5106;50.926;7.080;2022-07-26T04:56:44;7.13;;;2.45;;
10132;SDS011;5106;50.926;7.080;2022-07-26T04:59:12;4.75;;;2.22;;
10132;SDS011;5106;50.926;7.080;2022-07-26T05:01:38;7.78;;;2.70;;
10132;SDS011;5106;50.926;7.080;2022-07-26T05:04:03;9.35;;;2.70;;
10132;SDS011;5106;50.926;7.080;2022-07-26T05:06:29;6.63;;;2.50;;
10132;SDS011;5106;50.926;7.080;2022-07-26T05:08:56;7.68;;;2.60;;
10132;SDS011;5106;50.926;7.080;2022-07-26T05:11:22;7.43;;;2.90;;
10132;SDS011;5106;50.926;7.080;2022-07-26T05:13:48;7.65;;;2.63;;
10132;SDS011;5106;50.926;7.080;2022-07-26T05:16:13;7.40;;;2.70;;
10132;SDS011;5106;50.926;7.080;2022-07-26T05:18:39;7.97;;;2.70;;
10132;SDS011;5106;50.926;7.080;2022-07-26T05:21:05;7.18;;;2.97;;
10132;SDS011;5106;50.926;7.080;2022-07-26T05:23:30;6.85;;;2.75;;
10132;SDS011;5106;50.926;7.080;2022-07-26T05:25:56;8.85;;;2.85;;
10132;SDS011;5106;50.926;7.080;2022-07-26T05:28:22;6.43;;;3.05;;
10132;SDS011;5106;50.926;7.080;2022-07-26T05:30:47;9.52;;;3.00;;
10132;SDS011;5106;50.926;7.080;2022-07-26T05:33:13;7.18;;;3.50;;
10132;SDS011;5106;50.926;7.080;2022-07-26T05:35:38;7.80;;;3.05;;
10132;SDS011;5106;50.926;7.080;2022-07-26T05:38:04;8.43;;;3.20;;
10132;SDS011;5106;50.926;7.080;2022-07-26T05:40:29;8.45;;;3.08;;
10132;SDS011;5106;50.926;7.080;2022-07-26T05:42:55;9.43;;;3.72;;
10132;SDS011;5106;50.926;7.080;2022-07-26T05:45:21;10.85;;;3.60;;
10132;SDS011;5106;50.926;7.080;2022-07-26T05:47:50;7.20;;;3.30;;
10132;SDS011;5106;50.926;7.080;2022-07-26T05:50:16;9.77;;;3.60;;
10132;SDS011;5106;50.926;7.080;2022-07-26T05:52:43;11.73;;;3.53;;
10132;SDS011;5106;50.926;7.080;2022-07-26T05:55:09;10.13;;;3.65;;
10132;SDS011;5106;50.926;7.080;2022-07-26T05:57:35;8.60;;;4.15;;
10132;SDS011;5106;50.926;7.080;2022-07-26T06:00:05;7.20;;;3.35;;
10132;SDS011;5106;50.926;7.080;2022-07-26T06:02:35;6.47;;;3.45;;
10132;SDS011;5106;50.926;7.080;2022-07-26T06:05:00;8.90;;;3.72;;
10132;SDS011;5106;50.926;7.080;2022-07-26T06:07:26;11.20;;;4.07;;
10132;SDS011;5106;50.926;7.080;2022-07-26T06:09:51;6.18;;;3.47;;
10132;SDS011;5106;50.926;7.080;2022-07-26T06:12:17;13.00;;;4.13;;
10132;SDS011;5106;50.926;7.080;2022-07-26T06:14:43;10.13;;;4.20;;
10132;SDS011;5106;50.926;7.080;2022-07-26T06:17:09;10.38;;;4.13;;
10132;SDS011;5106;50.926;7.080;2022-07-26T06:19:35;10.80;;;3.92;;
10132;SDS011;5106;50.926;7.080;2022-07-26T06:22:01;10.20;;;4.28;;
10132;SDS011;5106;50.926;7.080;2022-07-26T06:24:27;10.45;;;3.75;;
10132;SDS011;5106;50.926;7.080;2022-07-26T06:26:53;9.32;;;3.95;;
10132;SDS011;5106;50.926;7.080;2022-07-26T06:29:20;7.95;;;3.30;;
10132;SDS011;5106;50.926;7.080;2022-07-26T06:31:46;9.27;;;4.45;;
10132;SDS011;5106;50.926;7.080;2022-07-26T06:34:12;10.57;;;4.32;;
10132;SDS011;5106;50.926;7.080;2022-07-26T06:36:38;11.10;;;4.28;;
10132;SDS011;5106;50.926;7.080;2022-07-26T06:39:04;10.20;;;3.88;;
10132;SDS011;5106;50.926;7.080;2022-07-26T06:41:29;11.80;;;4.03;;
10132;SDS011;5106;50.926;7.080;2022-07-26T06:43:55;9.75;;;4.07;;
10132;SDS011;5106;50.926;7.080;2022-07-26T06:46:20;10.32;;;4.05;;
10132;SDS011;5106;50.926;7.080;2022-07-26T06:48:47;7.47;;;3.72;;
10132;SDS011;5106;50.926;7.080;2022-07-26T06:51:13;10.45;;;4.15;;
10132;SDS011;5106;50.926;7.080;2022-07-26T06:53:39;8.10;;;3.88;;
10132;SDS011;5106;50.926;7.080;2022-07-26T06:56:05;12.63;;;4.38;;
10132;SDS011;5106;50.926;7.080;2022-07-26T06:58:31;11.63;;;4.47;;
10132;SDS011;5106;50.926;7.080;2022-07-26T07:00:57;8.98;;;4.10;;
10132;SDS011;5106;50.926;7.080;2022-07-26T07:03:23;10.10;;;4.28;;
10132;SDS011;5106;50.926;7.080;2022-07-26T07:05:48;9.55;;;4.20;;
10132;SDS011;5106;50.926;7.080;2022-07-26T07:08:14;12.30;;;4.50;;
10132;SDS011;5106;50.926;7.080;2022-07-26T07:10:40;11.10;;;4.68;;
10132;SDS011;5106;50.926;7.080;2022-07-26T07:13:05;10.20;;;4.53;;
10132;SDS011;5106;50.926;7.080;2022-07-26T07:15:31;12.85;;;4.50;;
10132;SDS011;5106;50.926;7.080;2022-07-26T07:17:57;11.85;;;4.65;;
10132;SDS011;5106;50.926;7.080;2022-07-26T07:20:22;10.52;;;5.00;;
10132;SDS011;5106;50.926;7.080;2022-07-26T07:22:48;9.45;;;4.40;;
10132;SDS011;5106;50.926;7.080;2022-07-26T07:25:14;12.75;;;4.82;;
10132;SDS011;5106;50.926;7.080;2022-07-26T07:27:39;13.60;;;4.82;;
10132;SDS011;5106;50.926;7.080;2022-07-26T07:30:05;14.02;;;4.60;;
10132;SDS011;5106;50.926;7.080;2022-07-26T07:32:32;12.60;;;4.97;;
10132;SDS011;5106;50.926;7.080;2022-07-26T07:34:57;9.68;;;5.03;;
10132;SDS011;5106;50.926;7.080;2022-07-26T07:37:23;7.20;;;4.38;;
10132;SDS011;5106;50.926;7.080;2022-07-26T07:39:55;9.57;;;5.40;;
10132;SDS011;5106;50.926;7.080;2022-07-26T07:42:20;9.93;;;5.15;;
10132;SDS011;5106;50.926;7.080;2022-07-26T07:44:46;12.05;;;5.97;;
10132;SDS011;5106;50.926;7.080;2022-07-26T07:47:12;12.60;;;6.20;;
10132;SDS011;5106;50.926;7.080;2022-07-26T07:49:38;13.18;;;5.43;;
10132;SDS011;5106;50.926;7.080;2022-07-26T07:52:03;9.73;;;5.63;;
10132;SDS011;5106;50.926;7.080;2022-07-26T07:54:29;12.10;;;6.00;;
10132;SDS011;5106;50.926;7.080;2022-07-26T07:56:55;17.00;;;6.10;;
10132;SDS011;5106;50.926;7.080;2022-07-26T07:59:21;11.45;;;6.53;;
10132;SDS011;5106;50.926;7.080;2022-07-26T08:01:47;9.57;;;6.28;;
10132;SDS011;5106;50.926;7.080;2022-07-26T08:04:13;13.95;;;7.47;;
10132;SDS011;5106;50.926;7.080;2022-07-26T08:06:38;13.68;;;7.28;;
10132;SDS011;5106;50.926;7.080;2022-07-26T08:09:05;13.98;;;6.35;;
10132;SDS011;5106;50.926;7.080;2022-07-26T08:11:30;11.70;;;6.85;;
10132;SDS011;5106;50.926;7.080;2022-07-26T08:13:56;13.70;;;6.90;;
10132;SDS011;5106;50.926;7.080;2022-07-26T08:16:22;12.45;;;6.65;;
10132;SDS011;5106;50.926;7.080;2022-07-26T08:18:48;10.65;;;6.75;;
10132;SDS011;5106;50.926;7.080;2022-07-26T08:21:13;13.38;;;8.07;;
10132;SDS011;5106;50.926;7.080;2022-07-26T08:23:39;12.48;;;6.97;;
10132;SDS011;5106;50.926;7.080;2022-07-26T08:26:05;9.15;;;6.30;;
10132;SDS011;5106;50.926;7.080;2022-07-26T08:28:30;11.38;;;7.00;;
10132;SDS011;5106;50.926;7.080;2022-07-26T08:30:56;13.60;;;7.35;;
10132;SDS011;5106;50.926;7.080;2022-07-26T08:33:22;11.57;;;7.20;;
10132;SDS011;5106;50.926;7.080;2022-07-26T08:35:47;12.52;;;7.13;;
10132;SDS011;5106;50.926;7.080;2022-07-26T08:38:13;12.20;;;7.45;;
10132;SDS011;5106;50.926;7.080;2022-07-26T08:40:39;14.18;;;7.50;;
10132;SDS011;5106;50.926;7.080;2022-07-26T08:43:04;10.35;;;7.10;;
10132;SDS011;5106;50.926;7.080;2022-07-26T08:45:30;13.52;;;7.93;;
10132;SDS011;5106;50.926;7.080;2022-07-26T08:47:57;10.25;;;7.25;;
10132;SDS011;5106;50.926;7.080;2022-07-26T08:50:23;12.35;;;8.35;;
10132;SDS011;5106;50.926;7.080;2022-07-26T08:52:50;12.30;;;9.10;;
10132;SDS011;5106;50.926;7.080;2022-07-26T08:55:18;13.38;;;9.75;;
10132;SDS011;5106;50.926;7.080;2022-07-26T08:57:45;14.30;;;8.88;;
10132;SDS011;5106;50.926;7.080;2022-07-26T09:02:42;14.55;;;10.05;;
10132;SDS011;5106;50.926;7.080;2022-07-26T09:05:08;13.07;;;9.45;;
10132;SDS011;5106;50.926;7.080;2022-07-26T09:07:34;12.32;;;9.98;;
10132;SDS011;5106;50.926;7.080;2022-07-26T09:10:04;15.35;;;9.65;;
10132;SDS011;5106;50.926;7.080;2022-07-26T09:12:32;11.82;;;8.85;;
10132;SDS011;5106;50.926;7.080;2022-07-26T09:14:59;12.05;;;8.82;;
10132;SDS011;5106;50.926;7.080;2022-07-26T09:17:47;18.35;;;8.63;;
10132;SDS011;5106;50.926;7.080;2022-07-26T09:20:14;14.75;;;8.98;;
10132;SDS011;5106;50.926;7.080;2022-07-26T09:22:59;11.90;;;8.25;;
10132;SDS011;5106;50.926;7.080;2022-07-26T09:25:30;17.80;;;8.73;;
10132;SDS011;5106;50.926;7.080;2022-07-26T09:27:58;14.30;;;9.23;;
10132;SDS011;5106;50.926;7.080;2022-07-26T09:30:24;10.38;;;8.70;;
10132;SDS011;5106;50.926;7.080;2022-07-26T09:32:59;10.55;;;7.85;;
10132;SDS011;5106;50.926;7.080;2022-07-26T09:35:30;9.95;;;7.55;;
10132;SDS011;5106;50.926;7.080;2022-07-26T09:37:57;10.75;;;7.13;;
10132;SDS011;5106;50.926;7.080;2022-07-26T09:40:23;13.32;;;7.05;;
10132;SDS011;5106;50.926;7.080;2022-07-26T09:42:58;10.35;;;7.30;;
10132;SDS011;5106;50.926;7.080;2022-07-26T09:45:28;10.60;;;7.32;;
10132;SDS011;5106;50.926;7.080;2022-07-26T09:47:56;9.23;;;7.20;;
10132;SDS011;5106;50.926;7.080;2022-07-26T09:50:25;8.38;;;7.03;;
10132;SDS011;5106;50.926;7.080;2022-07-26T09:53:05;10.60;;;7.22;;
10132;SDS011;5106;50.926;7.080;2022-07-26T09:55:57;11.30;;;7.03;;
10132;SDS011;5106;50.926;7.080;2022-07-26T09:58:22;9.93;;;6.40;;
10132;SDS011;5106;50.926;7.080;2022-07-26T10:00:48;10.20;;;6.38;;
10132;SDS011;5106;50.926;7.080;2022-07-26T10:03:14;7.15;;;5.80;;
10132;SDS011;5106;50.926;7.080;2022-07-26T10:05:40;9.93;;;6.25;;
10132;SDS011;5106;50.926;7.080;2022-07-26T10:08:06;10.18;;;5.70;;
10132;SDS011;5106;50.926;7.080;2022-07-26T10:10:33;9.15;;;6.13;;
10132;SDS011;5106;50.926;7.080;2022-07-26T10:13:19;9.00;;;5.95;;
10132;SDS011;5106;50.926;7.080;2022-07-26T10:15:46;8.35;;;6.22;;
10132;SDS011;5106;50.926;7.080;2022-07-26T10:21:20;10.30;;;7.55;;
10132;SDS011;5106;50.926;7.080;2022-07-26T10:23:50;10.85;;;7.75;;
10132;SDS011;5106;50.926;7.080;2022-07-26T10:29:17;11.70;;;7.13;;
10132;SDS011;5106;50.926;7.080;2022-07-26T10:34:30;8.35;;;6.85;;
10132;SDS011;5106;50.926;7.080;2022-07-26T10:36:58;7.70;;;6.43;;
10132;SDS011;5106;50.926;7.080;2022-07-26T10:39:26;7.47;;;6.50;;
10132;SDS011;5106;50.926;7.080;2022-07-26T10:44:29;9.40;;;6.53;;
10132;SDS011;5106;50.926;7.080;2022-07-26T10:57:38;7.60;;;5.80;;
10132;SDS011;5106;50.926;7.080;2022-07-26T11:00:26;9.95;;;5.95;;
10132;SDS011;5106;50.926;7.080;2022-07-26T11:02:52;6.97;;;3.90;;
10132;SDS011;5106;50.926;7.080;2022-07-26T11:05:20;6.68;;;3.80;;
10132;SDS011;5106;50.926;7.080;2022-07-26T11:07:56;5.38;;;3.00;;
10132;SDS011;5106;50.926;7.080;2022-07-26T11:10:23;4.53;;;3.10;;
10132;SDS011;5106;50.926;7.080;2022-07-26T11:13:00;6.45;;;3.08;;
10132;SDS011;5106;50.926;7.080;2022-07-26T11:15:37;4.18;;;2.90;;
10132;SDS011;5106;50.926;7.080;2022-07-26T11:18:09;4.30;;;2.60;;
10132;SDS011;5106;50.926;7.080;2022-07-26T11:20:37;4.60;;;2.60;;
10132;SDS011;5106;50.926;7.080;2022-07-26T11:23:05;5.50;;;2.70;;
10132;SDS011;5106;50.926;7.080;2022-07-26T11:28:45;6.75;;;3.05;;
10132;SDS011;5106;50.926;7.080;2022-07-26T11:34:01;3.80;;;2.78;;
10132;SDS011;5106;50.926;7.080;2022-07-26T11:36:45;4.95;;;3.17;;
10132;SDS011;5106;50.926;7.080;2022-07-26T11:39:13;3.55;;;2.50;;
10132;SDS011;5106;50.926;7.080;2022-07-26T11:41:46;4.70;;;2.58;;
10132;SDS011;5106;50.926;7.080;2022-07-26T11:44:16;3.83;;;2.40;;
10132;SDS011;5106;50.926;7.080;2022-07-26T11:46:43;5.50;;;2.30;;
10132;SDS011;5106;50.926;7.080;2022-07-26T11:49:17;4.47;;;2.20;;
10132;SDS011;5106;50.926;7.080;2022-07-26T11:54:18;3.45;;;2.38;;
10132;SDS011;5106;50.926;7.080;2022-07-26T11:57:00;3.95;;;2.50;;
10132;SDS011;5106;50.926;7.080;2022-07-26T11:59:35;4.30;;;2.28;;
10132;SDS011;5106;50.926;7.080;2022-07-26T12:02:02;5.68;;;2.90;;
10132;SDS011;5106;50.926;7.080;2022-07-26T12:04:31;5.35;;;2.55;;
10132;SDS011;5106;50.926;7.080;2022-07-26T12:06:59;5.45;;;3.10;;
10132;SDS011;5106;50.926;7.080;2022-07-26T12:11:59;4.63;;;2.70;;
10132;SDS011;5106;50.926;7.080;2022-07-26T12:14:32;5.40;;;2.83;;
10132;SDS011;5106;50.926;7.080;2022-07-26T12:19:55;4.20;;;2.20;;
10132;SDS011;5106;50.926;7.080;2022-07-26T12:22:33;5.88;;;2.50;;
10132;SDS011;5106;50.926;7.080;2022-07-26T12:24:59;4.53;;;2.20;;
10132;SDS011;5106;50.926;7.080;2022-07-26T12:27:29;3.45;;;2.20;;
10132;SDS011;5106;50.926;7.080;2022-07-26T12:32:36;4.13;;;2.10;;
10132;SDS011;5106;50.926;7.080;2022-07-26T12:35:04;2.90;;;1.85;;
10132;SDS011;5106;50.926;7.080;2022-07-26T12:37:31;3.90;;;1.80;;
10132;SDS011;5106;50.926;7.080;2022-07-26T12:42:35;3.35;;;2.20;;
10132;SDS011;5106;50.926;7.080;2022-07-26T12:45:06;5.63;;;2.67;;
10132;SDS011;5106;50.926;7.080;2022-07-26T12:47:34;3.35;;;2.30;;
10132;SDS011;5106;50.926;7.080;2022-07-26T12:50:02;2.20;;;1.80;;
10132;SDS011;5106;50.926;7.080;2022-07-26T12:52:29;4.38;;;2.45;;
10132;SDS011;5106;50.926;7.080;2022-07-26T12:54:55;4.40;;;2.22;;
10132;SDS011;5106;50.926;7.080;2022-07-26T12:57:21;3.90;;;2.42;;
10132;SDS011;5106;50.926;7.080;2022-07-26T12:59:47;4.32;;;2.45;;
10132;SDS011;5106;50.926;7.080;2022-07-26T13:02:15;4.60;;;2.63;;
10132;SDS011;5106;50.926;7.080;2022-07-26T13:04:42;6.57;;;3.00;;
10132;SDS011;5106;50.926;7.080;2022-07-26T13:07:08;4.57;;;2.33;;
10132;SDS011;5106;50.926;7.080;2022-07-26T13:09:34;6.13;;;2.33;;
10132;SDS011;5106;50.926;7.080;2022-07-26T13:12:01;2.92;;;2.38;;
10132;SDS011;5106;50.926;7.080;2022-07-26T13:14:28;4.28;;;2.50;;
10132;SDS011;5106;50.926;7.080;2022-07-26T13:16:54;4.20;;;2.20;;
10132;SDS011;5106;50.926;7.080;2022-07-26T13:19:19;4.03;;;2.40;;
10132;SDS011;5106;50.926;7.080;2022-07-26T13:21:45;3.05;;;2.50;;
10132;SDS011;5106;50.926;7.080;2022-07-26T13:24:11;3.97;;;3.20;;
10132;SDS011;5106;50.926;7.080;2022-07-26T13:26:36;3.92;;;3.17;;
10132;SDS011;5106;50.926;7.080;2022-07-26T13:29:02;3.38;;;2.97;;
10132;SDS011;5106;50.926;7.080;2022-07-26T13:31:28;5.30;;;2.75;;
10132;SDS011;5106;50.926;7.080;2022-07-26T13:33:55;5.18;;;3.00;;
10132;SDS011;5106;50.926;7.080;2022-07-26T13:36:20;5.18;;;2.63;;
10132;SDS011;5106;50.926;7.080;2022-07-26T13:38:46;3.10;;;2.67;;
10132;SDS011;5106;50.926;7.080;2022-07-26T13:41:11;3.15;;;2.13;;
10132;SDS011;5106;50.926;7.080;2022-07-26T13:43:37;3.80;;;2.15;;
10132;SDS011;5106;50.926;7.080;2022-07-26T13:46:03;2.70;;;2.03;;
10132;SDS011;5106;50.926;7.080;2022-07-26T13:48:28;3.25;;;1.90;;
10132;SDS011;5106;50.926;7.080;2022-07-26T13:50:54;2.28;;;1.88;;
10132;SDS011;5106;50.926;7.080;2022-07-26T13:53:21;2.60;;;1.80;;
10132;SDS011;5106;50.926;7.080;2022-07-26T13:55:47;4.68;;;2.03;;
10132;SDS011;5106;50.926;7.080;2022-07-26T13:58:13;2.67;;;1.90;;
10132;SDS011;5106;50.926;7.080;2022-07-26T14:00:39;3.85;;;2.50;;
10132;SDS011;5106;50.926;7.080;2022-07-26T14:03:05;5.00;;;2.53;;
10132;SDS011;5106;50.926;7.080;2022-07-26T14:05:31;3.08;;;2.35;;
10132;SDS011;5106;50.926;7.080;2022-07-26T14:07:56;2.95;;;2.55;;
10132;SDS011;5106;50.926;7.080;2022-07-26T14:10:22;3.67;;;2.40;;
10132;SDS011;5106;50.926;7.080;2022-07-26T14:12:48;4.35;;;2.38;;
10132;SDS011;5106;50.926;7.080;2022-07-26T14:15:15;3.53;;;2.90;;
10132;SDS011;5106;50.926;7.080;2022-07-26T14:17:41;6.00;;;2.90;;
10132;SDS011;5106;50.926;7.080;2022-07-26T14:20:06;5.03;;;3.25;;
10132;SDS011;5106;50.926;7.080;2022-07-26T14:22:33;4.07;;;2.45;;
10132;SDS011;5106;50.926;7.080;2022-07-26T14:24:58;4.57;;;3.05;;
10132;SDS011;5106;50.926;7.080;2022-07-26T14:27:24;4.18;;;3.08;;
10132;SDS011;5106;50.926;7.080;2022-07-26T14:29:49;3.72;;;2.90;;
10132;SDS011;5106;50.926;7.080;2022-07-26T14:32:15;2.80;;;2.60;;
10132;SDS011;5106;50.926;7.080;2022-07-26T14:34:41;4.32;;;2.88;;
10132;SDS011;5106;50.926;7.080;2022-07-26T14:37:06;4.38;;;3.00;;
10132;SDS011;5106;50.926;7.080;2022-07-26T14:39:32;3.70;;;2.85;;
10132;SDS011;5106;50.926;7.080;2022-07-26T14:41:58;3.50;;;2.63;;
10132;SDS011;5106;50.926;7.080;2022-07-26T14:44:25;3.75;;;3.00;;
10132;SDS011;5106;50.926;7.080;2022-07-26T14:46:51;3.42;;;2.30;;
10132;SDS011;5106;50.926;7.080;2022-07-26T14:49:17;3.83;;;2.20;;
10132;SDS011;5106;50.926;7.080;2022-07-26T14:51:43;2.80;;;1.90;;
10132;SDS011;5106;50.926;7.080;2022-07-26T14:54:10;2.40;;;1.70;;
10132;SDS011;5106;50.926;7.080;2022-07-26T14:56:37;3.50;;;1.30;;
10132;SDS011;5106;50.926;7.080;2022-07-26T14:59:02;4.10;;;1.60;;
10132;SDS011;5106;50.926;7.080;2022-07-26T15:01:28;2.08;;;1.42;;
10132;SDS011;5106;50.926;7.080;2022-07-26T15:03:54;3.08;;;1.30;;
10132;SDS011;5106;50.926;7.080;2022-07-26T15:06:20;1.88;;;1.02;;
10132;SDS011;5106;50.926;7.080;2022-07-26T15:08:46;2.38;;;1.02;;
10132;SDS011;5106;50.926;7.080;2022-07-26T15:11:11;1.65;;;1.08;;
10132;SDS011;5106;50.926;7.080;2022-07-26T15:13:38;2.38;;;1.52;;
10132;SDS011;5106;50.926;7.080;2022-07-26T15:16:04;2.45;;;1.10;;
10132;SDS011;5106;50.926;7.080;2022-07-26T15:18:29;5.03;;;1.20;;
10132;SDS011;5106;50.926;7.080;2022-07-26T15:20:55;2.00;;;1.10;;
10132;SDS011;5106;50.926;7.080;2022-07-26T15:23:21;2.05;;;1.20;;
10132;SDS011;5106;50.926;7.080;2022-07-26T15:25:47;3.22;;;1.40;;
10132;SDS011;5106;50.926;7.080;2022-07-26T15:28:13;2.80;;;1.48;;
10132;SDS011;5106;50.926;7.080;2022-07-26T15:30:39;4.28;;;1.48;;
10132;SDS011;5106;50.926;7.080;2022-07-26T15:33:05;2.90;;;1.20;;
10132;SDS011;5106;50.926;7.080;2022-07-26T15:35:31;3.45;;;1.30;;
10132;SDS011;5106;50.926;7.080;2022-07-26T15:37:59;3.63;;;1.45;;
10132;SDS011;5106;50.926;7.080;2022-07-26T15:40:25;5.03;;;1.48;;